Consulta les dades en temps real de l'estació municipal de St. Hilari Sacalm
| Hora UTC | 21:35 |
|---|---|
| Temperatura | 8.8 ºC |
| Humitat | 91.3 % |
| Pressió | 1014.5 hPa |
| Pluja | 0.0 mm |
| Velocitat vent | 0.0 km/h |
| Direcció vent | NNE |
| Radiació solar | 0.1 W/m² |
| Temperatura (ºC) | Humitat (%) | Pressió (hPa) | Velocitat vent (km/h) | Precipitació (mm) | Radiació solar (W/m²) | |||||||||||||
|---|---|---|---|---|---|---|---|---|---|---|---|---|---|---|---|---|---|---|
| Hora UTC | Aire | Humitat | Pressió | Vel. | Dir. | Vel. Max | Dir. | Intent. màx 5 min. | Rad. Sol. | |||||||||
| 00:05 | 8.7 | 93.2 | 1014.2 | 0.0 | NNE | 0.0 | NNE | 0.0 | 0.1 | |||||||||
| 00:10 | 8.6 | 93.2 | 1014.2 | 0.0 | NNE | 0.0 | WNW | 0.0 | 0.1 | |||||||||
| 00:15 | 8.6 | 93.7 | 1014.2 | 0.0 | NNE | 0.0 | NW | 0.0 | 0.1 | |||||||||
| 00:20 | 8.6 | 94.1 | 1014.1 | 0.0 | NNE | 0.0 | NW | 0.0 | 0.1 | |||||||||
| 00:25 | 8.5 | 94.0 | 1014.1 | 0.0 | NNE | 0.0 | NNW | 0.0 | 0.1 | |||||||||
| 00:30 | 8.4 | 93.9 | 1014.0 | 0.0 | NNE | 0.0 | NNW | 0.0 | 0.1 | |||||||||
| 00:35 | 8.2 | 94.0 | 1014.0 | 0.0 | NNE | 0.0 | NNW | 0.0 | 0.1 | |||||||||
| 00:40 | 8.2 | 94.2 | 1014.0 | 0.0 | NNE | 0.0 | WNW | 0.0 | 0.1 | |||||||||
| 00:45 | 8.2 | 94.5 | 1014.0 | 0.0 | NNE | 0.0 | NW | 0.0 | 0.1 | |||||||||
| 00:50 | 8.3 | 94.5 | 1014.0 | 0.0 | NNE | 0.0 | NNW | 0.0 | 0.1 | |||||||||
| 00:55 | 8.1 | 94.2 | 1013.9 | 0.0 | NNE | 0.0 | NNW | 0.0 | 0.1 | |||||||||
| 01:00 | 7.9 | 94.0 | 1013.9 | 0.0 | NNE | 0.0 | NNW | 0.0 | 0.1 | |||||||||
| 01:05 | 8.0 | 94.4 | 1013.9 | 0.0 | NNE | 0.0 | WSW | 0.0 | 0.1 | |||||||||
| 01:10 | 8.2 | 94.8 | 1013.8 | 0.0 | NNE | 0.0 | W | 0.0 | 0.1 | |||||||||
| 01:15 | 8.2 | 94.8 | 1013.8 | 0.0 | NNE | 0.0 | WNW | 0.0 | 0.1 | |||||||||
| 01:20 | 8.1 | 94.5 | 1013.7 | 0.0 | NNE | 0.0 | WNW | 0.0 | 0.1 | |||||||||
| 01:25 | 8.0 | 94.5 | 1013.7 | 0.0 | NNE | 0.0 | WSW | 0.0 | 0.1 | |||||||||
| 01:30 | 7.8 | 94.5 | 1013.7 | 0.0 | NNE | 0.0 | W | 0.0 | 0.1 | |||||||||
| 01:35 | 7.7 | 94.5 | 1013.6 | 0.0 | NNE | 0.0 | WNW | 0.0 | 0.1 | |||||||||
| 01:40 | 7.5 | 94.7 | 1013.6 | 0.0 | NNE | 0.0 | WNW | 0.0 | 0.1 | |||||||||
| 01:45 | 7.4 | 94.7 | 1013.6 | 0.0 | NNE | 0.0 | W | 0.0 | 0.1 | |||||||||
| 01:50 | 7.3 | 94.9 | 1013.6 | 0.0 | NNE | 0.0 | WNW | 0.0 | 0.1 | |||||||||
| 01:55 | 7.2 | 95.0 | 1013.6 | 0.0 | NNE | 0.0 | WNW | 0.0 | 0.1 | |||||||||
| 02:00 | 7.1 | 95.0 | 1013.6 | 0.0 | NNE | 0.0 | WSW | 0.0 | 0.1 | |||||||||
| 02:05 | 7.0 | 95.0 | 1013.6 | 0.0 | NNE | 0.0 | W | 0.0 | 0.1 | |||||||||
| 02:10 | 7.0 | 95.3 | 1013.6 | 0.0 | NNE | 0.0 | WSW | 0.0 | 0.1 | |||||||||
| 02:15 | 7.1 | 95.5 | 1013.5 | 0.0 | NNE | 0.0 | W | 0.0 | 0.1 | |||||||||
| 02:20 | 7.1 | 95.6 | 1013.5 | 0.0 | NNE | 0.0 | SW | 0.0 | 0.1 | |||||||||
| 02:25 | 6.9 | 95.5 | 1013.5 | 0.0 | NNE | 0.0 | WSW | 0.0 | 0.1 | |||||||||
| 02:30 | 6.9 | 95.6 | 1013.5 | 0.0 | NNE | 0.0 | W | 0.0 | 0.1 | |||||||||
| 02:35 | 7.0 | 95.9 | 1013.4 | 0.0 | NNE | 0.0 | NNW | 0.0 | 0.1 | |||||||||
| 02:40 | 6.9 | 95.8 | 1013.4 | 0.0 | NNE | 0.0 | WNW | 0.0 | 0.1 | |||||||||
| 02:45 | 6.7 | 95.6 | 1013.4 | 0.0 | NNE | 0.0 | WNW | 0.0 | 0.1 | |||||||||
| 02:50 | 6.5 | 95.5 | 1013.4 | 0.0 | NNE | 0.0 | WSW | 0.0 | 0.1 | |||||||||
| 02:55 | 6.5 | 95.8 | 1013.4 | 0.0 | NNE | 0.0 | W | 0.0 | 0.1 | |||||||||
| 03:00 | 6.4 | 95.7 | 1013.4 | 0.0 | NNE | 0.0 | WNW | 0.0 | 0.1 | |||||||||
| 03:05 | 6.3 | 95.7 | 1013.4 | 0.0 | NNE | 0.0 | W | 0.0 | 0.1 | |||||||||
| 03:10 | 6.2 | 95.7 | 1013.4 | 0.0 | NNE | 0.0 | WNW | 0.0 | 0.1 | |||||||||
| 03:15 | 6.1 | 95.9 | 1013.4 | 0.0 | NNE | 0.0 | WNW | 0.0 | 0.1 | |||||||||
| 03:20 | 6.1 | 95.9 | 1013.4 | 0.0 | NNE | 0.0 | W | 0.0 | 0.1 | |||||||||
| 03:25 | 6.1 | 96.0 | 1013.3 | 0.0 | NNE | 0.0 | WNW | 0.0 | 0.1 | |||||||||
| 03:30 | 6.0 | 96.0 | 1013.3 | 0.0 | NNE | 0.0 | W | 0.0 | 0.1 | |||||||||
| 03:35 | 6.1 | 96.2 | 1013.3 | 0.0 | NNE | 0.0 | WSW | 0.0 | 0.1 | |||||||||
| 03:40 | 6.0 | 96.1 | 1013.3 | 0.0 | NNE | 0.0 | WSW | 0.0 | 0.1 | |||||||||
| 03:45 | 6.0 | 96.1 | 1013.3 | 0.0 | WSW | 3.4 | WSW | 0.0 | 0.1 | |||||||||
| 03:50 | 6.0 | 96.3 | 1013.3 | 0.0 | NNE | 0.0 | W | 0.0 | 0.1 | |||||||||
| 03:55 | 6.1 | 96.5 | 1013.3 | 0.0 | NNE | 0.0 | W | 0.0 | 0.1 | |||||||||
| 04:00 | 6.3 | 96.7 | 1013.3 | 0.0 | NNE | 0.0 | SSW | 0.0 | 0.1 | |||||||||
| 04:05 | 6.3 | 96.5 | 1013.3 | 0.0 | NNE | 0.0 | SSW | 0.0 | 0.1 | |||||||||
| 04:10 | 6.1 | 96.2 | 1013.4 | 0.0 | NNE | 0.0 | S | 0.0 | 0.1 | |||||||||
| 04:15 | 6.0 | 96.1 | 1013.4 | 0.0 | NNE | 0.0 | WSW | 0.0 | 0.1 | |||||||||
| 04:20 | 6.0 | 96.4 | 1013.4 | 0.0 | W | 3.4 | W | 0.0 | 0.3 | |||||||||
| 04:25 | 6.0 | 96.4 | 1013.3 | 0.0 | NNE | 0.0 | W | 0.0 | 0.7 | |||||||||
| 04:30 | 6.0 | 96.4 | 1013.3 | 0.0 | NNE | 0.0 | WSW | 0.0 | 1.4 | |||||||||
| 04:35 | 6.0 | 96.4 | 1013.2 | 0.0 | NNE | 0.0 | S | 0.0 | 2.5 | |||||||||
| 04:40 | 6.0 | 96.3 | 1013.2 | 0.0 | NNE | 0.0 | SSW | 0.0 | 4.0 | |||||||||
| 04:45 | 5.9 | 96.2 | 1013.3 | 0.0 | NNE | 0.0 | SW | 0.0 | 5.8 | |||||||||
| 04:50 | 5.9 | 96.3 | 1013.3 | 0.0 | NNE | 0.0 | SW | 0.0 | 8.1 | |||||||||
| 04:55 | 5.9 | 96.2 | 1013.3 | 0.0 | NNE | 0.0 | WSW | 0.0 | 10.8 | |||||||||
| 05:00 | 5.9 | 96.3 | 1013.4 | 0.0 | NNE | 0.0 | SW | 0.0 | 14.0 | |||||||||
| 05:05 | 6.1 | 96.6 | 1013.4 | 0.0 | NNE | 0.0 | SSW | 0.0 | 17.7 | |||||||||
| 05:10 | 6.3 | 96.5 | 1013.5 | 0.0 | NNE | 0.0 | SSW | 0.0 | 57.8 | |||||||||
| 05:15 | 6.4 | 96.4 | 1013.5 | 0.0 | NNE | 0.0 | SW | 0.0 | 81.1 | |||||||||
| 05:20 | 6.8 | 96.1 | 1013.5 | 0.0 | NNE | 0.0 | SSW | 0.0 | 95.6 | |||||||||
| 05:25 | 7.3 | 95.1 | 1013.5 | 0.0 | NNE | 0.0 | WSW | 0.0 | 107.7 | |||||||||
| 05:30 | 7.8 | 94.4 | 1013.5 | 0.0 | NNE | 0.0 | SSW | 0.0 | 90.6 | |||||||||
| 05:35 | 8.4 | 93.9 | 1013.5 | 0.0 | NNE | 0.0 | W | 0.0 | 136.1 | |||||||||
| 05:40 | 8.9 | 93.1 | 1013.5 | 0.0 | NNE | 0.0 | SW | 0.0 | 151.5 | |||||||||
| 05:45 | 9.3 | 92.8 | 1013.6 | 0.0 | NNE | 0.0 | SW | 0.0 | 166.2 | |||||||||
| 05:50 | 9.5 | 91.0 | 1013.7 | 0.0 | NNE | 0.0 | SSW | 0.0 | 179.5 | |||||||||
| 05:55 | 9.6 | 89.5 | 1013.7 | 0.0 | NNE | 0.0 | S | 0.0 | 194.2 | |||||||||
| 06:00 | 9.8 | 88.2 | 1013.8 | 0.0 | NNE | 0.0 | S | 0.0 | 208.2 | |||||||||
| 06:05 | 10.2 | 87.2 | 1013.8 | 0.0 | NNE | 0.0 | S | 0.0 | 222.9 | |||||||||
| 06:10 | 11.0 | 85.8 | 1013.8 | 0.0 | NNE | 0.0 | S | 0.0 | 222.4 | |||||||||
| 06:15 | 11.7 | 83.1 | 1013.8 | 0.0 | NNE | 0.0 | SSE | 0.0 | 222.5 | |||||||||
| 06:20 | 12.0 | 80.9 | 1013.8 | 0.0 | NNE | 0.0 | SE | 0.0 | 253.7 | |||||||||
| 06:25 | 12.3 | 79.3 | 1013.9 | 0.0 | NNE | 0.0 | SE | 0.0 | 191.3 | |||||||||
| 06:30 | 12.1 | 78.5 | 1013.8 | 0.0 | NNE | 0.0 | SE | 0.0 | 220.9 | |||||||||
| 06:35 | 12.5 | 80.1 | 1013.8 | 0.0 | NNE | 0.0 | SE | 0.0 | 314.3 | |||||||||
| 06:40 | 13.0 | 77.1 | 1013.9 | 0.0 | S | 3.4 | S | 0.0 | 341.9 | |||||||||
| 06:45 | 13.6 | 75.2 | 1013.9 | 0.0 | NNE | 0.0 | S | 0.0 | 354.0 | |||||||||
| 06:50 | 13.8 | 72.5 | 1014.0 | 0.0 | NNE | 0.0 | SSE | 0.0 | 256.8 | |||||||||
| 06:55 | 13.1 | 73.5 | 1014.0 | 4.3 | SSE | 8.8 | S | 0.0 | 253.2 | |||||||||
| 07:00 | 12.5 | 76.0 | 1014.0 | 2.4 | S | 8.8 | SSE | 0.0 | 275.2 | |||||||||
| 07:05 | 12.5 | 77.6 | 1014.0 | 0.0 | S | 3.4 | S | 0.0 | 108.5 | |||||||||
| 07:10 | 12.2 | 78.1 | 1014.0 | 0.0 | NNE | 0.0 | S | 0.0 | 130.7 | |||||||||
| 07:15 | 11.8 | 79.1 | 1014.1 | 3.8 | SSE | 8.8 | SSW | 0.0 | 96.6 | |||||||||
| 07:20 | 11.3 | 81.3 | 1014.2 | 1.0 | SSE | 8.8 | SSE | 0.0 | 112.1 | |||||||||
| 07:25 | 10.9 | 83.2 | 1014.2 | 3.3 | S | 8.8 | S | 0.0 | 207.4 | |||||||||
| 07:30 | 11.0 | 84.2 | 1014.2 | 0.0 | NNE | 0.0 | SSE | 0.0 | 188.5 | |||||||||
| 07:35 | 11.1 | 83.9 | 1014.2 | 2.7 | S | 11.5 | S | 0.0 | 112.0 | |||||||||
| 07:40 | 10.9 | 84.8 | 1014.3 | 2.9 | S | 14.2 | S | 0.0 | 140.2 | |||||||||
| 07:45 | 11.0 | 86.2 | 1014.4 | 2.6 | S | 14.2 | S | 0.0 | 502.9 | |||||||||
| 07:50 | 11.7 | 85.5 | 1014.4 | 5.0 | SSE | 11.5 | S | 0.0 | 625.5 | |||||||||
| 07:55 | 12.0 | 83.1 | 1014.3 | 2.2 | SSE | 11.5 | S | 0.0 | 570.3 | |||||||||
| 08:00 | 12.8 | 81.2 | 1014.4 | 3.3 | S | 14.2 | S | 0.0 | 656.0 | |||||||||
| 08:05 | 13.6 | 78.1 | 1014.3 | 4.2 | SSW | 8.8 | S | 0.0 | 587.8 | |||||||||
| 08:10 | 14.0 | 74.2 | 1014.2 | 0.0 | NNE | 0.0 | SSE | 0.0 | 648.0 | |||||||||
| 08:15 | 14.3 | 74.2 | 1014.2 | 0.0 | NNE | 0.0 | E | 0.0 | 597.6 | |||||||||
| 08:20 | 14.7 | 73.2 | 1014.3 | 3.4 | S | 11.5 | SSW | 0.0 | 645.8 | |||||||||
| 08:25 | 14.6 | 72.2 | 1014.2 | 3.1 | SE | 11.5 | SSE | 0.0 | 718.0 | |||||||||
| 08:30 | 14.7 | 71.7 | 1014.2 | 4.4 | S | 8.8 | S | 0.0 | 630.6 | |||||||||
| 08:35 | 14.3 | 71.4 | 1014.1 | 1.1 | S | 8.8 | SSW | 0.0 | 452.2 | |||||||||
| 08:40 | 14.2 | 73.0 | 1014.1 | 1.1 | SSE | 14.2 | SSE | 0.0 | 624.4 | |||||||||
| 08:45 | 14.5 | 74.1 | 1014.1 | 2.3 | SSW | 8.8 | SSW | 0.0 | 642.3 | |||||||||
| 08:50 | 14.8 | 72.0 | 1014.1 | 4.1 | S | 11.5 | S | 0.0 | 791.5 | |||||||||
| 08:55 | 14.4 | 72.0 | 1014.0 | 6.3 | SSE | 14.2 | ESE | 0.0 | 302.6 | |||||||||
| 09:00 | 13.8 | 74.9 | 1014.1 | 5.8 | S | 16.9 | SSE | 0.0 | 549.3 | |||||||||
| 09:05 | 14.4 | 76.7 | 1014.1 | 2.5 | SSE | 8.8 | S | 0.0 | 554.2 | |||||||||
| 09:10 | 14.8 | 71.9 | 1014.2 | 5.4 | S | 11.5 | S | 0.0 | 349.5 | |||||||||
| 09:15 | 14.6 | 72.1 | 1014.2 | 4.0 | S | 11.5 | SSE | 0.0 | 397.8 | |||||||||
| 09:20 | 14.8 | 71.6 | 1014.2 | 4.1 | S | 11.5 | SSE | 0.0 | 949.0 | |||||||||
| 09:25 | 15.0 | 70.0 | 1014.2 | 5.8 | S | 11.5 | SSE | 0.0 | 895.0 | |||||||||
| 09:30 | 15.7 | 68.9 | 1014.3 | 4.0 | SSW | 11.5 | SSW | 0.0 | 634.8 | |||||||||
| 09:35 | 15.5 | 69.0 | 1014.4 | 7.3 | SSE | 16.9 | S | 0.0 | 871.0 | |||||||||
| 09:40 | 15.0 | 69.6 | 1014.3 | 9.9 | SE | 19.6 | ESE | 0.0 | 1038.0 | |||||||||
| 09:45 | 15.0 | 69.8 | 1014.3 | 8.6 | SSE | 16.9 | SE | 0.0 | 776.6 | |||||||||
| 09:50 | 14.7 | 70.4 | 1014.4 | 8.4 | SE | 16.9 | SSE | 0.0 | 730.0 | |||||||||
| 09:55 | 15.2 | 70.0 | 1014.4 | 7.1 | SSE | 16.9 | S | 0.0 | 1060.0 | |||||||||
| 10:00 | 15.1 | 68.7 | 1014.4 | 11.3 | S | 19.6 | SSE | 0.0 | 694.2 | |||||||||
| 10:05 | 15.3 | 69.1 | 1014.3 | 5.8 | SSE | 14.2 | SSE | 0.0 | 905.0 | |||||||||
| 10:10 | 15.6 | 67.5 | 1014.3 | 8.5 | SSE | 16.9 | E | 0.0 | 1055.0 | |||||||||
| 10:15 | 16.5 | 63.9 | 1014.3 | 4.0 | S | 14.2 | SSW | 0.0 | 519.8 | |||||||||
| 10:20 | 16.1 | 64.2 | 1014.2 | 3.9 | S | 14.2 | SSE | 0.0 | 692.9 | |||||||||
| 10:25 | 15.8 | 66.0 | 1014.1 | 7.5 | SSE | 14.2 | SSE | 0.0 | 740.7 | |||||||||
| 10:30 | 15.6 | 67.1 | 1014.1 | 9.7 | SSE | 19.6 | SE | 0.0 | 949.0 | |||||||||
| 10:35 | 15.4 | 69.0 | 1014.1 | 10.4 | SSE | 19.6 | S | 0.0 | 866.0 | |||||||||
| 10:40 | 15.8 | 67.6 | 1014.1 | 7.0 | S | 14.2 | S | 0.0 | 823.0 | |||||||||
| 10:45 | 16.3 | 65.4 | 1014.1 | 9.7 | S | 16.9 | SSE | 0.0 | 848.0 | |||||||||
| 10:50 | 16.3 | 66.2 | 1014.2 | 7.9 | SSE | 16.9 | SSW | 0.0 | 782.5 | |||||||||
| 10:55 | 15.7 | 67.3 | 1014.1 | 5.7 | ESE | 16.9 | SE | 0.0 | 372.7 | |||||||||
| 11:00 | 15.3 | 68.9 | 1014.1 | 10.1 | SE | 19.6 | ENE | 0.0 | 331.6 | |||||||||
| 11:05 | 14.8 | 70.2 | 1014.0 | 10.9 | SE | 22.3 | ESE | 0.0 | 908.0 | |||||||||
| 11:10 | 15.1 | 70.0 | 1014.0 | 13.5 | SE | 25.0 | SE | 0.0 | 1110.0 | |||||||||
| 11:15 | 15.3 | 68.7 | 1014.0 | 11.3 | SE | 22.3 | ESE | 0.0 | 916.0 | |||||||||
| 11:20 | 14.9 | 70.6 | 1013.9 | 7.0 | SE | 14.2 | SE | 0.0 | 386.3 | |||||||||
| 11:25 | 15.0 | 70.4 | 1013.9 | 6.6 | SSE | 16.9 | ESE | 0.0 | 355.3 | |||||||||
| 11:30 | 15.1 | 70.4 | 1013.9 | 3.2 | S | 11.5 | SSW | 0.0 | 261.0 | |||||||||
| 11:35 | 14.9 | 70.5 | 1013.9 | 4.4 | SSE | 14.2 | SE | 0.0 | 211.3 | |||||||||
| 11:40 | 14.6 | 71.6 | 1013.9 | 6.0 | ESE | 16.9 | E | 0.0 | 235.2 | |||||||||
| 11:45 | 14.2 | 73.7 | 1013.8 | 4.4 | SE | 14.2 | E | 0.0 | 273.8 | |||||||||
| 11:50 | 14.1 | 74.2 | 1013.8 | 5.9 | ESE | 14.2 | ESE | 0.0 | 316.4 | |||||||||
| 11:55 | 14.4 | 74.0 | 1013.7 | 4.6 | E | 19.6 | E | 0.0 | 793.5 | |||||||||
| 12:00 | 15.0 | 71.4 | 1013.7 | 6.2 | ENE | 14.2 | ENE | 0.0 | 396.6 | |||||||||
| 12:05 | 15.1 | 71.3 | 1013.7 | 3.9 | ENE | 19.6 | NE | 0.0 | 464.1 | |||||||||
| 12:10 | 15.3 | 70.2 | 1013.7 | 7.7 | ESE | 16.9 | NE | 0.0 | 813.0 | |||||||||
| 12:15 | 15.2 | 69.7 | 1013.8 | 9.7 | E | 19.6 | ENE | 0.0 | 360.0 | |||||||||
| 12:20 | 14.7 | 70.7 | 1013.8 | 8.3 | ESE | 19.6 | ESE | 0.0 | 322.6 | |||||||||
| 12:25 | 14.7 | 71.5 | 1013.8 | 5.1 | ESE | 14.2 | SE | 0.0 | 468.1 | |||||||||
| 12:30 | 14.6 | 71.5 | 1013.8 | 8.4 | ESE | 19.6 | E | 0.0 | 163.8 | |||||||||
| 12:35 | 14.2 | 72.2 | 1013.9 | 7.5 | E | 22.3 | E | 0.0 | 235.7 | |||||||||
| 12:40 | 13.9 | 72.2 | 1013.9 | 9.8 | ESE | 16.9 | ESE | 0.0 | 307.2 | |||||||||
| 12:45 | 13.7 | 72.5 | 1013.9 | 12.7 | ESE | 22.3 | S | 0.0 | 383.0 | |||||||||
| 12:50 | 13.7 | 72.2 | 1013.8 | 11.3 | ESE | 16.9 | ESE | 0.0 | 592.4 | |||||||||
| 12:55 | 13.9 | 71.5 | 1013.8 | 8.1 | ESE | 16.9 | SE | 0.0 | 560.2 | |||||||||
| 13:00 | 14.3 | 70.3 | 1013.8 | 7.0 | SE | 19.6 | ENE | 0.0 | 407.2 | |||||||||
| 13:05 | 13.9 | 69.9 | 1013.8 | 11.3 | SSE | 19.6 | SE | 0.0 | 326.2 | |||||||||
| 13:10 | 13.5 | 72.2 | 1013.8 | 8.6 | SSE | 19.6 | SSE | 0.0 | 454.5 | |||||||||
| 13:15 | 14.0 | 72.0 | 1013.7 | 2.8 | ESE | 11.5 | E | 0.0 | 346.3 | |||||||||
| 13:20 | 13.9 | 71.0 | 1013.6 | 7.8 | ESE | 14.2 | SE | 0.0 | 671.9 | |||||||||
| 13:25 | 13.8 | 71.7 | 1013.6 | 6.7 | SE | 16.9 | ESE | 0.0 | 314.9 | |||||||||
| 13:30 | 13.7 | 72.4 | 1013.5 | 8.9 | ESE | 16.9 | SE | 0.0 | 516.4 | |||||||||
| 13:35 | 14.0 | 71.9 | 1013.5 | 8.2 | SE | 16.9 | ESE | 0.0 | 339.0 | |||||||||
| 13:40 | 13.7 | 71.8 | 1013.4 | 10.4 | SE | 19.6 | ESE | 0.0 | 380.7 | |||||||||
| 13:45 | 13.6 | 73.4 | 1013.3 | 9.2 | SE | 16.9 | ESE | 0.0 | 639.6 | |||||||||
| 13:50 | 13.8 | 72.4 | 1013.3 | 12.6 | SE | 19.6 | SSE | 0.0 | 729.3 | |||||||||
| 13:55 | 14.0 | 71.6 | 1013.3 | 10.4 | SE | 25.0 | SSE | 0.0 | 552.9 | |||||||||
| 14:00 | 14.1 | 71.3 | 1013.2 | 8.4 | SSE | 16.9 | S | 0.0 | 470.3 | |||||||||
| 14:05 | 14.6 | 70.6 | 1013.1 | 7.9 | ESE | 14.2 | ESE | 0.0 | 783.3 | |||||||||
| 14:10 | 14.9 | 69.5 | 1013.1 | 6.5 | E | 14.2 | ESE | 0.0 | 503.9 | |||||||||
| 14:15 | 14.8 | 69.1 | 1013.1 | 6.2 | E | 16.9 | E | 0.0 | 494.4 | |||||||||
| 14:20 | 14.5 | 69.5 | 1012.9 | 6.2 | E | 16.9 | ESE | 0.0 | 350.7 | |||||||||
| 14:25 | 14.4 | 71.2 | 1012.9 | 6.5 | ESE | 19.6 | ESE | 0.0 | 706.7 | |||||||||
| 14:30 | 14.5 | 69.9 | 1012.9 | 8.1 | ESE | 19.6 | SE | 0.0 | 407.7 | |||||||||
| 14:35 | 14.3 | 70.7 | 1012.8 | 6.9 | ESE | 14.2 | E | 0.0 | 625.6 | |||||||||
| 14:40 | 14.4 | 70.8 | 1012.8 | 8.8 | ENE | 19.6 | E | 0.0 | 309.1 | |||||||||
| 14:45 | 14.2 | 71.5 | 1012.8 | 6.4 | ESE | 19.6 | E | 0.0 | 550.9 | |||||||||
| 14:50 | 14.5 | 71.0 | 1012.9 | 6.1 | ESE | 19.6 | E | 0.0 | 422.1 | |||||||||
| 14:55 | 14.3 | 70.9 | 1012.8 | 5.6 | E | 16.9 | ENE | 0.0 | 278.7 | |||||||||
| 15:00 | 14.3 | 71.5 | 1012.8 | 4.2 | E | 11.5 | NE | 0.0 | 340.1 | |||||||||
| 15:05 | 14.3 | 71.2 | 1012.8 | 5.6 | E | 11.5 | ENE | 0.0 | 526.5 | |||||||||
| 15:15 | 15.0 | 69.2 | 1012.8 | 3.8 | E | 16.9 | NE | 0.0 | 384.6 | |||||||||
| 15:20 | 14.8 | 69.4 | 1012.8 | 7.7 | ENE | 16.9 | NE | 0.0 | 325.2 | |||||||||
| 15:25 | 14.6 | 70.2 | 1012.7 | 6.9 | ENE | 14.2 | ENE | 0.0 | 249.5 | |||||||||
| 15:30 | 14.4 | 71.1 | 1012.7 | 3.8 | E | 11.5 | SE | 0.0 | 367.3 | |||||||||
| 15:35 | 14.6 | 70.9 | 1012.7 | 7.7 | ENE | 14.2 | NE | 0.0 | 440.7 | |||||||||
| 15:40 | 14.7 | 70.4 | 1012.7 | 6.4 | E | 14.2 | E | 0.0 | 474.6 | |||||||||
| 15:45 | 14.7 | 70.5 | 1012.8 | 9.2 | E | 16.9 | E | 0.0 | 337.1 | |||||||||
| 15:50 | 14.3 | 71.5 | 1012.8 | 9.5 | E | 19.6 | E | 0.0 | 173.2 | |||||||||
| 15:55 | 14.0 | 73.1 | 1012.8 | 9.9 | E | 19.6 | ENE | 0.0 | 140.7 | |||||||||
| 16:00 | 13.7 | 74.0 | 1012.8 | 10.6 | E | 16.9 | ENE | 0.0 | 226.8 | |||||||||
| 16:05 | 13.8 | 74.8 | 1012.9 | 6.8 | E | 14.2 | ENE | 0.0 | 177.9 | |||||||||
| 16:10 | 13.8 | 74.4 | 1012.8 | 4.2 | E | 14.2 | NE | 0.0 | 209.8 | |||||||||
| 16:15 | 13.7 | 74.6 | 1012.8 | 2.6 | ESE | 11.5 | ESE | 0.0 | 226.7 | |||||||||
| 16:20 | 13.7 | 74.3 | 1012.9 | 6.6 | ESE | 11.5 | ESE | 0.0 | 255.2 | |||||||||
| 16:25 | 13.5 | 75.0 | 1012.9 | 5.1 | SE | 11.5 | ESE | 0.0 | 221.3 | |||||||||
| 16:30 | 13.7 | 75.2 | 1013.0 | 2.3 | ENE | 16.9 | ENE | 0.0 | 119.7 | |||||||||
| 16:35 | 13.5 | 75.1 | 1013.0 | 6.1 | E | 14.2 | ENE | 0.0 | 108.4 | |||||||||
| 16:40 | 13.4 | 76.2 | 1013.0 | 5.5 | E | 14.2 | E | 0.0 | 138.5 | |||||||||
| 16:45 | 13.4 | 76.5 | 1012.9 | 3.5 | ENE | 11.5 | E | 0.0 | 146.8 | |||||||||
| 16:50 | 13.4 | 77.1 | 1012.9 | 0.0 | ESE | 3.4 | ESE | 0.0 | 131.8 | |||||||||
| 16:55 | 13.2 | 77.4 | 1012.9 | 4.4 | E | 14.2 | E | 0.0 | 149.8 | |||||||||
| 17:00 | 13.0 | 77.7 | 1012.9 | 2.8 | ENE | 11.5 | E | 0.0 | 141.0 | |||||||||
| 17:05 | 13.0 | 78.1 | 1012.9 | 2.0 | ENE | 11.5 | E | 0.0 | 133.9 | |||||||||
| 17:10 | 12.8 | 78.6 | 1012.9 | 1.7 | ENE | 11.5 | ENE | 0.0 | 128.8 | |||||||||
| 17:15 | 12.8 | 79.0 | 1012.9 | 0.0 | NNE | 0.0 | ENE | 0.0 | 127.4 | |||||||||
| 17:20 | 12.9 | 78.7 | 1012.8 | 0.1 | E | 6.1 | ENE | 0.0 | 124.9 | |||||||||
| 17:25 | 13.0 | 78.2 | 1012.8 | 0.9 | ENE | 8.8 | ENE | 0.0 | 116.7 | |||||||||
| 17:30 | 13.0 | 77.8 | 1012.8 | 0.0 | NNE | 0.0 | ESE | 0.0 | 108.6 | |||||||||
| 17:35 | 12.8 | 78.1 | 1012.8 | 0.0 | NNE | 0.0 | E | 0.0 | 101.2 | |||||||||
| 17:40 | 12.8 | 78.2 | 1012.9 | 0.3 | NE | 8.8 | E | 0.0 | 98.9 | |||||||||
| 17:45 | 12.7 | 78.1 | 1012.9 | 5.9 | E | 14.2 | E | 0.0 | 94.3 | |||||||||
| 17:50 | 12.7 | 78.8 | 1013.0 | 1.1 | E | 8.8 | ESE | 0.0 | 86.9 | |||||||||
| 17:55 | 12.6 | 79.3 | 1013.0 | 0.0 | NNE | 0.0 | E | 0.0 | 77.2 | |||||||||
| 18:00 | 12.4 | 80.0 | 1013.0 | 0.0 | NNE | 0.0 | ENE | 0.0 | 64.2 | |||||||||
| 18:05 | 12.3 | 80.6 | 1013.0 | 0.0 | NNE | 0.0 | E | 0.0 | 54.0 | |||||||||
| 18:10 | 12.1 | 81.4 | 1013.0 | 0.0 | NNE | 0.0 | ENE | 0.0 | 46.8 | |||||||||
| 18:15 | 12.0 | 82.0 | 1013.1 | 0.0 | NNE | 0.0 | E | 0.0 | 39.9 | |||||||||
| 18:20 | 11.9 | 82.4 | 1013.1 | 0.0 | NNE | 0.0 | ENE | 0.0 | 33.1 | |||||||||
| 18:25 | 11.8 | 82.9 | 1013.1 | 0.0 | NNE | 0.0 | ENE | 0.0 | 27.8 | |||||||||
| 18:30 | 11.7 | 83.4 | 1013.1 | 0.0 | NNE | 0.0 | E | 0.0 | 22.2 | |||||||||
| 18:35 | 11.7 | 83.4 | 1013.2 | 0.0 | NNE | 0.0 | SE | 0.0 | 17.7 | |||||||||
| 18:40 | 11.3 | 84.1 | 1013.2 | 0.0 | NNE | 0.0 | NE | 0.0 | 13.6 | |||||||||
| 18:45 | 11.0 | 85.8 | 1013.3 | 0.0 | NNE | 0.0 | NNE | 0.0 | 10.1 | |||||||||
| 18:50 | 10.8 | 86.5 | 1013.3 | 0.0 | NNE | 0.0 | NNE | 0.0 | 7.7 | |||||||||
| 18:55 | 10.7 | 87.2 | 1013.4 | 0.0 | NNE | 0.0 | NNE | 0.0 | 4.6 | |||||||||
| 19:00 | 10.5 | 87.4 | 1013.4 | 0.0 | NNE | 0.0 | NNE | 0.0 | 1.8 | |||||||||
| 19:05 | 10.3 | 87.4 | 1013.4 | 0.0 | NNE | 0.0 | NNE | 0.0 | 1.0 | |||||||||
| 19:10 | 10.2 | 87.4 | 1013.4 | 0.0 | NNE | 0.0 | NNE | 0.0 | 0.5 | |||||||||
| 19:15 | 10.1 | 87.7 | 1013.5 | 0.0 | NNE | 0.0 | NNE | 0.0 | 0.3 | |||||||||
| 19:20 | 10.2 | 88.5 | 1013.5 | 0.0 | NNE | 0.0 | W | 0.0 | 0.1 | |||||||||
| 19:25 | 10.2 | 89.0 | 1013.6 | 0.0 | NNE | 0.0 | WNW | 0.0 | 0.1 | |||||||||
| 19:30 | 10.1 | 89.2 | 1013.6 | 0.0 | NNE | 0.0 | WSW | 0.0 | 0.1 | |||||||||
| 19:35 | 10.1 | 89.9 | 1013.6 | 0.0 | NNE | 0.0 | SSW | 0.0 | 0.1 | |||||||||
| 19:40 | 10.1 | 90.3 | 1013.7 | 0.0 | NNE | 0.0 | W | 0.0 | 0.1 | |||||||||
| 19:45 | 10.0 | 90.3 | 1013.8 | 0.6 | WNW | 6.1 | WNW | 0.0 | 0.1 | |||||||||
| 19:50 | 9.9 | 90.5 | 1013.9 | 0.0 | NNE | 0.0 | WNW | 0.0 | 0.1 | |||||||||
| 19:55 | 9.9 | 90.7 | 1013.9 | 0.0 | NNE | 0.0 | W | 0.0 | 0.1 | |||||||||
| 20:00 | 9.9 | 90.8 | 1013.9 | 0.0 | NNE | 0.0 | WNW | 0.0 | 0.1 | |||||||||
| 20:05 | 9.8 | 90.7 | 1014.0 | 0.0 | NNE | 0.0 | WNW | 0.0 | 0.1 | |||||||||
| 20:10 | 9.7 | 90.6 | 1014.1 | 0.0 | NNE | 0.0 | SW | 0.0 | 0.1 | |||||||||
| 20:15 | 9.6 | 90.8 | 1014.2 | 0.3 | WSW | 6.1 | WSW | 0.0 | 0.1 | |||||||||
| 20:20 | 9.4 | 91.0 | 1014.2 | 0.0 | NNE | 0.0 | SW | 0.0 | 0.1 | |||||||||
| 20:25 | 9.5 | 91.4 | 1014.2 | 0.4 | SW | 6.1 | WSW | 0.0 | 0.1 | |||||||||
| 20:30 | 9.4 | 91.3 | 1014.3 | 0.0 | NNE | 0.0 | W | 0.0 | 0.1 | |||||||||
| 20:35 | 9.2 | 91.2 | 1014.3 | 0.0 | NNE | 0.0 | WNW | 0.0 | 0.1 | |||||||||
| 20:40 | 9.1 | 91.3 | 1014.4 | 0.0 | NNE | 0.0 | W | 0.0 | 0.1 | |||||||||
| 20:45 | 9.1 | 91.5 | 1014.4 | 0.0 | NNE | 0.0 | WSW | 0.0 | 0.1 | |||||||||
| 20:50 | 9.2 | 91.8 | 1014.4 | 0.0 | NNE | 0.0 | SW | 0.0 | 0.1 | |||||||||
| 20:55 | 9.2 | 91.8 | 1014.5 | 0.2 | WNW | 6.1 | WNW | 0.0 | 0.1 | |||||||||
| 21:00 | 9.2 | 91.5 | 1014.5 | 0.0 | NNE | 0.0 | WSW | 0.0 | 0.1 | |||||||||
| 21:05 | 9.1 | 91.1 | 1014.5 | 0.0 | NNE | 0.0 | W | 0.0 | 0.1 | |||||||||
| 21:10 | 9.0 | 91.0 | 1014.4 | 0.0 | NNE | 0.0 | W | 0.0 | 0.1 | |||||||||
| 21:15 | 8.9 | 91.0 | 1014.5 | 0.0 | NNE | 0.0 | SW | 0.0 | 0.1 | |||||||||
| 21:20 | 8.8 | 91.1 | 1014.5 | 0.0 | NNE | 0.0 | WSW | 0.0 | 0.1 | |||||||||
| 21:25 | 8.8 | 91.4 | 1014.5 | 0.0 | NNE | 0.0 | W | 0.0 | 0.1 | |||||||||
| 21:30 | 8.9 | 91.5 | 1014.4 | 0.0 | NNE | 0.0 | NW | 0.0 | 0.1 | |||||||||
| 21:35 | 8.8 | 91.3 | 1014.5 | 0.0 | NNE | 0.0 | SW | 0.0 | 0.1 | |||||||||
| Màxima | 16.5 | 96.7 | 1014.5 | 13.5 | SE | 25.0 | SSE | 0.0 | 1110.0 | |||||||||
| Mínima | 5.9 | 63.9 | 1012.7 | |||||||||||||||
| Total | 0.0 | |||||||||||||||||